Terminal Aerodrome Forecast
Issued by NWS Cleveland, OH

Home | Current Version | Previous Version | Text Only | Print | Product List | Glossary On
Versions: 1 2 3 4 5 6 7 8 9 10 11 12 13
000
FTUS41 KCLE 122300
TAFYNG
TAF
KYNG 122330Z 1300/1324 20008KT P6SM SCT050 SCT150
     FM130900 20010KT P6SM VCTS SCT025 OVC050CB
      TEMPO 1310/1314 3SM -TSRA BR SCT015 OVC025CB
     FM131600 22014G22KT P6SM VCTS BKN035 OVC100CB=

USA.gov is the U.S. government's official web portal to all federal, state and local government web resources and services.